• Join FlightAware (Why Join?)
  • Login
  • US Flag 
02:44AM EDT


 

Airport Tracker/Info


-or-


 

Live Flight TrackerFlight Track Log ✈ ALK166 ✈ 19-Feb-2014 ✈ VOCI / COK - VCBI / CMB

Flight Track Log - Related Links

Times and Time Zones

All times are in EST time to prevent confusion due to time zone crossing. See the ALK166 flight status page for this flight to view local times or setup timezone preferences in your user account.

Time Position Orientation Groundspeed Altitude Reporting Facility
EST Latitude Longitude Course Direction KTS MPH feet Rate Location/Type
11:18PM 10.1509 76.3932 269° West 165 190 300  Level FlightAware ADS-B
11:18PM 10.1482 76.3785 259° West 157 181 1,100 2,220 Climbing FlightAware ADS-B
11:18PM 10.1451 76.3748 230° Southwest 159 183 1,300 1,500 Climbing FlightAware ADS-B
11:19PM 10.1418 76.3722 217° Southwest 164 189 1,400 1,260 Climbing FlightAware ADS-B
11:19PM 10.1365 76.3705 197° South 165 190 1,600 1,560 Climbing FlightAware ADS-B
11:19PM 10.1278 76.3730 165° South 171 197 1,900 1,380 Climbing FlightAware ADS-B
11:19PM 10.1246 76.3763 134° Southeast 175 201 2,000 1,080 Climbing FlightAware ADS-B
11:19PM 10.1226 76.3802 117° Southeast 182 209 2,100 960 Climbing FlightAware ADS-B
11:19PM 10.1180 76.3919 112° Southeast 204 235 2,300 1,080 Climbing FlightAware ADS-B
11:20PM 10.1134 76.4043 111° Southeast 226 260 2,600 1,440 Climbing FlightAware ADS-B
11:20PM 10.1064 76.4242 110° East 258 297 3,100 2,100 Climbing FlightAware ADS-B
11:20PM 10.0998 76.4438 109° East 270 311 3,800 3,060 Climbing FlightAware ADS-B
11:20PM 10.0947 76.4590 109° East 271 312 4,600 3,060 Climbing FlightAware ADS-B
11:21PM 10.0893 76.4748 109° East 279 321 5,200 3,000 Climbing FlightAware ADS-B
11:21PM 10.0818 76.4965 109° East 284 327 6,100 3,240 Climbing FlightAware ADS-B
11:21PM 10.0757 76.5141 109° East 281 323 6,900 3,180 Climbing FlightAware ADS-B
11:21PM 10.0688 76.5338 110° East 284 327 7,700 3,000 Climbing FlightAware ADS-B
11:22PM 10.0614 76.5550 110° East 289 333 8,500 3,000 Climbing FlightAware ADS-B
11:22PM 10.0550 76.5726 110° East 293 337 9,200 2,880 Climbing FlightAware ADS-B
11:22PM 10.0477 76.5932 110° East 298 343 9,900 1,980 Climbing FlightAware ADS-B
11:23PM 10.0306 76.6408 110° East 319 367 10,900 1,560 Climbing FlightAware ADS-B
11:23PM 10.0155 76.6832 110° East 348 400 11,600 1,920 Climbing FlightAware ADS-B
11:24PM 9.9990 76.7296 110° East 353 406 12,800 2,220 Climbing FlightAware ADS-B
11:24PM 9.9809 76.7801 110° East 363 418 13,900 2,040 Climbing FlightAware ADS-B
11:25PM 9.9643 76.8267 110° East 372 428 14,900 2,160 Climbing FlightAware ADS-B
11:25PM 9.9473 76.8745 110° East 376 433 16,000 1,620 Climbing FlightAware ADS-B
11:26PM 9.9281 76.9282 110° East 395 455 16,600 900 Climbing FlightAware ADS-B
11:26PM 9.9099 76.9792 110° East 420 483 16,900 480 Climbing FlightAware ADS-B
11:26PM 9.9025 77.0223 100° East 436 502 17,000 660 Climbing FlightAware ADS-B
11:27PM 9.8994 77.0771 93° East 450 518 17,500 1,080 Climbing FlightAware ADS-B
11:27PM 9.8949 77.1439 94° East 457 526 18,100 1,380 Climbing FlightAware ADS-B
11:28PM 9.8897 77.2200 94° East 461 531 19,000 2,040 Climbing FlightAware ADS-B
11:29PM 9.8857 77.2810 94° East 448 516 20,400 1,500 Climbing FlightAware ADS-B
11:36PM 9.3004 77.8992 136° Southeast 423 487 31,000 1,440 Climbing FlightAware ADS-B
11:36PM 9.2931 77.9060 138° Southeast 423 487 31,000  Level FlightAware ADS-B
11:38PM 9.1200 78.0666 138° Southeast 421 484 31,000  Level FlightAware ADS-B
11:38PM 9.1094 78.0763 138° Southeast 421 484 31,000  Level FlightAware ADS-B
11:41PM 8.9864 78.1913 137° Southeast  Level Estimated
11:42PM 8.9358 78.2384 137° Southeast  Level Estimated
11:43PM 8.8853 78.2856 137° Southeast  Level Estimated
11:44PM 8.8347 78.3328 137° Southeast  Level Estimated
11:45PM 8.7841 78.3800 137° Southeast  Level Estimated
11:46PM 8.7335 78.4271 137° Southeast  Level Estimated
11:47PM 8.6829 78.4743 137° Southeast  Level Estimated
11:48PM 8.6323 78.5214 137° Southeast  Level Estimated
11:49PM 8.5817 78.5685 137° Southeast  Level Estimated
11:50PM 8.5311 78.6156 137° Southeast  Level Estimated
11:51PM 8.4804 78.6627 137° Southeast  Level Estimated
11:52PM 8.4298 78.7098 137° Southeast  Level Estimated
11:53PM 8.3792 78.7568 137° Southeast  Level Estimated
11:54PM 8.3285 78.8039 137° Southeast  Level Estimated
11:55PM 8.2779 78.8509 137° Southeast  Level Estimated
11:56PM 8.2273 78.8979 137° Southeast  Level Estimated
11:57PM 8.1766 78.9449 137° Southeast  Level Estimated
11:58PM 8.1259 78.9920 137° Southeast  Level Estimated
11:59PM 8.0753 79.0389 137° Southeast  Level Estimated
12:00AM 8.0246 79.0859 137° Southeast  Level Estimated
12:01AM 7.9739 79.1329 137° Southeast  Level Estimated
12:02AM 7.9233 79.1798 137° Southeast  Level Estimated
12:03AM 7.8726 79.2268 137° Southeast  Level Estimated
12:04AM 7.8219 79.2737 137° Southeast  Level Estimated
12:05AM 7.7712 79.3206 137° Southeast  Level Estimated
12:06AM 7.7205 79.3676 137° Southeast  Level Estimated
12:07AM 7.6698 79.4145 137° Southeast  Level Estimated
12:08AM 7.6191 79.4613 137° Southeast  Level Estimated
12:09AM 7.5683 79.5082 138° Southeast  Level Estimated
12:10AM 7.5176 79.5551 138° Southeast  Level Estimated
12:11AM 7.4669 79.6019 138° Southeast  Level Estimated
12:12AM 7.4162 79.6488 138° Southeast  Level Estimated
12:13AM 7.3654 79.6956 138° Southeast  Level Estimated
12:14AM 7.3147 79.7424 138° Southeast  Level Estimated
12:15AM 7.2639 79.7892 138° Southeast  Level Estimated
12:16AM 7.2132 79.8360 138° Southeast  Level Estimated
12:17AM 7.1809 79.8658 138° Southeast  Level Estimated
12:18AM 7.1809 79.8658 71° East  Level Estimated
12:19AM 7.1809 79.8658 71° East  Level Estimated
12:20AM 7.1809 79.8658 71° East  Level Estimated
12:21AM 7.1809 79.8658 71° East  Level Estimated
12:22AM 7.1809 79.8658 71° East  Level Estimated
12:23AM 7.1809 79.8658 71° East  Level Estimated
12:24AM 7.1809 79.8658 71° East  Level Estimated